Time;durP1;ratioP1;P1;durP2;ratioP2;P2;SDS_P1;SDS_P2;PMS_P1;PMS_P2;Temp;Humidity;BMP_temperature;BMP_pressure;BME280_temperature;BME280_humidity;BME280_pressure;Samples;Min_cycle;Max_cycle;Signal;HPM_P1;HPM_P2
2022/02/21 00:01:00;;;;;;;28.67;27.17;;;;;;;;;;6186348;23;20477;-83
2022/02/21 00:03:27;;;;;;;28.87;27.27;;;;;;;;;;6160863;23;20162;-85
2022/02/21 00:05:56;;;;;;;27.50;26.10;;;;;;;;;;6187752;23;20412;-85
2022/02/21 00:08:24;;;;;;;28.55;27.05;;;;;;;;;;6186765;23;20170;-83
2022/02/21 00:10:51;;;;;;;30.65;28.73;;;;;;;;;;6185660;23;20604;-86
2022/02/21 00:13:18;;;;;;;32.28;30.67;;;;;;;;;;6187423;23;20848;-89
2022/02/21 00:15:46;;;;;;;32.13;30.40;;;;;;;;;;6160281;23;20224;-86
2022/02/21 00:18:14;;;;;;;32.88;31.15;;;;;;;;;;6135053;23;20201;-79
2022/02/21 00:20:41;;;;;;;33.42;31.73;;;;;;;;;;6185153;23;20166;-79
2022/02/21 00:23:11;;;;;;;32.80;31.20;;;;;;;;;;6185211;23;20177;-80
2022/02/21 00:25:39;;;;;;;34.60;32.97;;;;;;;;;;6185161;23;20703;-78
2022/02/21 00:28:07;;;;;;;35.60;33.70;;;;;;;;;;6158780;23;20236;-79
2022/02/21 00:30:34;;;;;;;37.08;35.38;;;;;;;;;;6185149;23;20169;-78
2022/02/21 00:33:01;;;;;;;39.30;37.53;;;;;;;;;;6185052;23;20232;-79
2022/02/21 00:35:29;;;;;;;43.10;41.10;;;;;;;;;;6185399;23;20169;-77
2022/02/21 00:37:56;;;;;;;39.33;37.53;;;;;;;;;;6185030;23;20169;-78
2022/02/21 00:40:26;;;;;;;38.00;36.25;;;;;;;;;;6185476;23;20170;-78
2022/02/21 00:42:53;;;;;;;44.80;42.65;;;;;;;;;;6185157;23;20251;-79
2022/02/21 00:45:21;;;;;;;44.55;42.45;;;;;;;;;;6185016;23;20600;-78
2022/02/21 00:47:48;;;;;;;42.47;40.38;;;;;;;;;;6185513;23;20168;-79
2022/02/21 00:50:15;;;;;;;41.72;39.60;;;;;;;;;;6186131;23;20589;-79
2022/02/21 00:52:44;;;;;;;43.40;41.00;;;;;;;;;;6158720;23;20185;-78
2022/02/21 00:55:12;;;;;;;40.90;38.70;;;;;;;;;;6184134;23;20575;-78
2022/02/21 00:57:41;;;;;;;38.40;36.50;;;;;;;;;;6159104;23;20209;-79
2022/02/21 01:00:09;;;;;;;40.15;38.15;;;;;;;;;;6184906;23;20193;-78
2022/02/21 01:02:37;;;;;;;43.83;41.65;;;;;;;;;;6184961;23;20172;-78
2022/02/21 01:05:05;;;;;;;41.20;39.00;;;;;;;;;;6159011;23;20177;-78
2022/02/21 01:07:33;;;;;;;41.08;39.17;;;;;;;;;;6159428;23;20166;-77
2022/02/21 01:10:00;;;;;;;41.72;39.78;;;;;;;;;;6184944;23;20539;-77
2022/02/21 01:12:28;;;;;;;41.45;39.25;;;;;;;;;;6185200;23;20162;-77
2022/02/21 01:14:57;;;;;;;41.60;39.60;;;;;;;;;;6158555;23;20248;-79
2022/02/21 01:17:27;;;;;;;41.58;39.58;;;;;;;;;;6185230;23;20225;-78
2022/02/21 01:19:54;;;;;;;40.05;38.25;;;;;;;;;;6184690;23;20212;-78
2022/02/21 01:22:22;;;;;;;38.80;37.10;;;;;;;;;;6184740;23;20225;-78
2022/02/21 01:24:49;;;;;;;40.38;38.58;;;;;;;;;;6160427;23;20624;-77
2022/02/21 01:27:17;;;;;;;39.00;36.97;;;;;;;;;;6160339;23;20235;-77
2022/02/21 01:29:44;;;;;;;38.38;36.38;;;;;;;;;;6160852;23;20170;-78
2022/02/21 01:32:13;;;;;;;37.55;35.83;;;;;;;;;;6187003;23;20596;-78
2022/02/21 01:34:41;;;;;;;38.13;36.33;;;;;;;;;;6186945;23;20162;-78
2022/02/21 01:37:08;;;;;;;40.38;38.35;;;;;;;;;;6186971;23;20169;-78
2022/02/21 01:39:36;;;;;;;41.33;39.45;;;;;;;;;;6186971;23;20200;-77
2022/02/21 01:42:04;;;;;;;39.17;37.28;;;;;;;;;;6186682;23;20267;-78
2022/02/21 01:44:35;;;;;;;39.67;37.88;;;;;;;;;;6186699;23;20193;-78
2022/02/21 01:47:04;;;;;;;39.42;37.20;;;;;;;;;;6186508;23;20172;-77
2022/02/21 01:49:32;;;;;;;39.75;37.50;;;;;;;;;;6186508;23;20224;-77
2022/02/21 01:52:01;;;;;;;38.55;36.58;;;;;;;;;;6160111;23;20182;-77
2022/02/21 01:54:28;;;;;;;38.70;36.50;;;;;;;;;;6186426;23;20217;-77
2022/02/21 01:56:56;;;;;;;38.38;36.55;;;;;;;;;;6186459;23;20166;-77
2022/02/21 01:59:24;;;;;;;37.10;35.28;;;;;;;;;;6186770;23;20189;-77
2022/02/21 02:01:51;;;;;;;36.42;34.58;;;;;;;;;;6186566;23;20169;-77
2022/02/21 02:04:19;;;;;;;34.72;32.92;;;;;;;;;;6186407;23;20185;-77
2022/02/21 02:06:48;;;;;;;36.97;35.08;;;;;;;;;;6186264;23;20166;-77
2022/02/21 02:09:16;;;;;;;33.65;32.15;;;;;;;;;;6186849;23;20608;-77
2022/02/21 02:11:44;;;;;;;35.40;33.60;;;;;;;;;;6186100;23;20519;-77
2022/02/21 02:14:27;;;;;;;23.60;22.50;;;;;;;;;;6186432;23;20165;-77
2022/02/21 02:16:54;;;;;;;23.98;22.42;;;;;;;;;;6186665;23;20177;-77
2022/02/21 02:19:21;;;;;;;22.13;20.80;;;;;;;;;;6185639;23;20197;-77
2022/02/21 02:21:55;;;;;;;22.08;20.75;;;;;;;;;;6186272;23;20170;-76
2022/02/21 02:24:24;;;;;;;21.70;20.52;;;;;;;;;;6186705;23;20166;-77
2022/02/21 02:26:54;;;;;;;21.83;20.50;;;;;;;;;;6159843;23;20174;-77
2022/02/21 02:29:21;;;;;;;21.77;20.25;;;;;;;;;;6186178;23;20617;-76
2022/02/21 02:31:49;;;;;;;22.80;21.35;;;;;;;;;;6186649;23;20162;-77
2022/02/21 02:34:16;;;;;;;20.70;19.70;;;;;;;;;;6185813;23;20212;-77
2022/02/21 02:36:47;;;;;;;20.83;19.50;;;;;;;;;;6185963;23;20173;-77
2022/02/21 02:39:15;;;;;;;20.05;18.95;;;;;;;;;;6186032;23;20628;-77
2022/02/21 02:41:44;;;;;;;21.88;18.88;;;;;;;;;;6185932;23;20256;-77
2022/02/21 02:44:12;;;;;;;20.98;19.88;;;;;;;;;;6186517;23;20205;-77
2022/02/21 02:46:39;;;;;;;20.83;19.38;;;;;;;;;;6186129;23;20636;-76
2022/02/21 02:49:06;;;;;;;19.92;18.67;;;;;;;;;;6185397;23;20683;-77
2022/02/21 02:51:34;;;;;;;19.88;18.42;;;;;;;;;;6186010;23;20541;-77
2022/02/21 02:54:01;;;;;;;18.73;17.67;;;;;;;;;;6185882;23;20651;-77
2022/02/21 02:56:29;;;;;;;18.58;17.38;;;;;;;;;;6186124;23;20806;-76
2022/02/21 02:58:58;;;;;;;17.85;16.98;;;;;;;;;;6186317;23;20638;-76
2022/02/21 03:01:26;;;;;;;18.30;16.95;;;;;;;;;;6159588;23;20174;-77
2022/02/21 03:03:53;;;;;;;17.92;16.92;;;;;;;;;;6159534;23;20624;-77
2022/02/21 03:06:21;;;;;;;19.02;17.75;;;;;;;;;;6159840;23;20512;-76
2022/02/21 03:08:48;;;;;;;19.67;18.58;;;;;;;;;;6159793;23;20177;-76
2022/02/21 03:11:16;;;;;;;18.95;17.77;;;;;;;;;;6186296;23;20166;-77
2022/02/21 03:13:43;;;;;;;20.42;18.45;;;;;;;;;;6185221;23;20177;-76
2022/02/21 03:16:12;;;;;;;19.55;18.10;;;;;;;;;;6159578;23;20240;-76
2022/02/21 03:18:39;;;;;;;18.60;17.38;;;;;;;;;;6186148;23;20169;-77
2022/02/21 03:21:07;;;;;;;18.17;17.23;;;;;;;;;;6186095;23;20272;-77
2022/02/21 03:23:34;;;;;;;17.67;16.08;;;;;;;;;;6186397;23;20166;-76
2022/02/21 03:26:02;;;;;;;18.60;17.10;;;;;;;;;;6185793;23;20608;-76
2022/02/21 03:28:29;;;;;;;17.20;16.10;;;;;;;;;;6186181;23;20539;-76
2022/02/21 03:30:57;;;;;;;20.85;17.45;;;;;;;;;;6185940;23;20232;-76
2022/02/21 03:33:26;;;;;;;17.30;16.10;;;;;;;;;;6185606;23;20635;-76
2022/02/21 03:35:53;;;;;;;18.02;16.23;;;;;;;;;;6185967;23;20166;-77
2022/02/21 03:38:21;;;;;;;18.60;17.25;;;;;;;;;;6185671;23;20174;-76
2022/02/21 03:40:49;;;;;;;19.27;18.13;;;;;;;;;;6159514;23;20652;-77
2022/02/21 03:43:16;;;;;;;17.05;15.88;;;;;;;;;;6185814;23;20185;-76
2022/02/21 03:45:44;;;;;;;16.90;16.10;;;;;;;;;;6185361;23;20169;-76
2022/02/21 03:48:11;;;;;;;19.70;18.60;;;;;;;;;;6159910;23;20169;-76
2022/02/21 03:50:40;;;;;;;17.88;16.70;;;;;;;;;;6159377;23;20181;-76
2022/02/21 03:53:08;;;;;;;17.75;16.80;;;;;;;;;;6185913;23;20166;-76
2022/02/21 03:55:35;;;;;;;17.08;16.10;;;;;;;;;;6185222;23;20596;-76
2022/02/21 03:58:02;;;;;;;17.17;16.10;;;;;;;;;;6185508;23;20173;-77
2022/02/21 04:00:30;;;;;;;18.17;16.45;;;;;;;;;;6185285;23;20201;-76
2022/02/21 04:02:57;;;;;;;17.20;16.30;;;;;;;;;;6185468;23;20177;-76
2022/02/21 04:05:25;;;;;;;17.85;16.65;;;;;;;;;;6185447;23;20173;-77
2022/02/21 04:07:54;;;;;;;17.63;16.60;;;;;;;;;;6185373;23;20189;-77
2022/02/21 04:10:21;;;;;;;17.58;16.52;;;;;;;;;;6185317;23;20173;-76
2022/02/21 04:12:48;;;;;;;16.90;15.77;;;;;;;;;;6185909;23;20197;-76
2022/02/21 04:15:16;;;;;;;17.38;16.30;;;;;;;;;;6185704;23;20181;-76
2022/02/21 04:17:44;;;;;;;17.27;16.30;;;;;;;;;;6185439;23;20212;-76
2022/02/21 04:20:13;;;;;;;16.90;16.00;;;;;;;;;;6185369;23;20235;-76
2022/02/21 04:22:40;;;;;;;15.63;14.93;;;;;;;;;;6185649;23;20185;-76
2022/02/21 04:25:11;;;;;;;17.60;16.38;;;;;;;;;;6185501;23;20485;-76
2022/02/21 04:27:45;;;;;;;16.48;15.68;;;;;;;;;;6185553;23;20220;-76
2022/02/21 04:30:13;;;;;;;17.40;16.50;;;;;;;;;;6185164;23;20172;-76
2022/02/21 04:32:41;;;;;;;17.02;15.32;;;;;;;;;;6185751;23;20173;-76
2022/02/21 04:35:09;;;;;;;16.15;15.45;;;;;;;;;;6185433;23;20173;-76
2022/02/21 04:37:37;;;;;;;16.13;15.40;;;;;;;;;;6158791;23;20683;-76
2022/02/21 04:40:05;;;;;;;17.58;16.48;;;;;;;;;;6185468;23;20197;-76
2022/02/21 04:42:35;;;;;;;17.48;16.10;;;;;;;;;;6185382;23;20228;-76
2022/02/21 04:45:02;;;;;;;16.90;15.98;;;;;;;;;;6185425;23;20221;-76
2022/02/21 04:47:29;;;;;;;16.60;15.50;;;;;;;;;;6159671;23;20165;-76
2022/02/21 04:49:57;;;;;;;16.92;15.98;;;;;;;;;;6185402;23;20612;-76
2022/02/21 04:52:24;;;;;;;16.58;15.77;;;;;;;;;;6185326;23;20516;-76
2022/02/21 04:54:52;;;;;;;17.80;16.60;;;;;;;;;;6153597;23;20206;-76
2022/02/21 04:57:19;;;;;;;17.65;16.65;;;;;;;;;;6155362;23;20181;-76
2022/02/21 04:59:48;;;;;;;17.50;16.58;;;;;;;;;;6154580;23;20190;-76
2022/02/21 05:02:15;;;;;;;17.20;16.13;;;;;;;;;;6155337;23;20168;-76
2022/02/21 05:04:43;;;;;;;18.48;17.13;;;;;;;;;;6153721;23;20174;-76
2022/02/21 05:07:10;;;;;;;18.98;17.75;;;;;;;;;;6155630;23;20162;-76
2022/02/21 05:09:37;;;;;;;19.30;17.90;;;;;;;;;;6155548;23;20163;-76
2022/02/21 05:12:06;;;;;;;19.30;18.10;;;;;;;;;;6155057;23;20601;-76
2022/02/21 05:14:33;;;;;;;20.63;19.05;;;;;;;;;;6155531;23;20163;-76
2022/02/21 05:17:02;;;;;;;17.60;16.58;;;;;;;;;;6153543;23;20178;-76
2022/02/21 05:19:30;;;;;;;17.33;16.42;;;;;;;;;;6155410;23;20170;-78
2022/02/21 05:21:57;;;;;;;17.13;16.05;;;;;;;;;;6155201;23;20173;-76
2022/02/21 05:24:25;;;;;;;18.33;17.05;;;;;;;;;;6155492;23;20174;-76
2022/02/21 05:26:53;;;;;;;18.25;16.92;;;;;;;;;;6155330;23;20162;-76
2022/02/21 05:29:20;;;;;;;19.40;17.85;;;;;;;;;;6155453;23;20214;-76
2022/02/21 05:31:49;;;;;;;24.58;23.15;;;;;;;;;;6155462;23;20166;-77
2022/02/21 05:34:18;;;;;;;27.30;25.75;;;;;;;;;;6155136;23;20604;-76
2022/02/21 05:36:45;;;;;;;28.83;27.20;;;;;;;;;;6153544;23;20173;-76
2022/02/21 05:39:13;;;;;;;33.15;31.05;;;;;;;;;;6154881;23;20174;-77
2022/02/21 05:41:40;;;;;;;32.13;30.63;;;;;;;;;;6154806;23;20804;-77
2022/02/21 05:44:07;;;;;;;32.80;31.40;;;;;;;;;;6154005;23;20167;-77
2022/02/21 05:46:37;;;;;;;37.80;35.90;;;;;;;;;;6154914;23;20171;-77
2022/02/21 05:49:05;;;;;;;35.10;33.42;;;;;;;;;;6154910;23;20171;-78
2022/02/21 05:51:34;;;;;;;34.13;32.30;;;;;;;;;;6155368;23;20613;-77
2022/02/21 05:54:02;;;;;;;34.53;32.83;;;;;;;;;;6161926;23;20205;-78
2022/02/21 05:56:29;;;;;;;33.78;31.40;;;;;;;;;;6158381;23;20181;-78
2022/02/21 05:58:57;;;;;;;34.53;32.67;;;;;;;;;;6185081;23;20166;-77
2022/02/21 06:01:24;;;;;;;36.55;33.58;;;;;;;;;;6158142;23;20690;-78
2022/02/21 06:03:52;;;;;;;31.17;29.67;;;;;;;;;;6184870;23;20173;-78
2022/02/21 06:06:20;;;;;;;31.13;29.30;;;;;;;;;;6184991;23;20173;-78
2022/02/21 06:08:49;;;;;;;27.52;26.23;;;;;;;;;;6134471;23;20227;-78
2022/02/21 06:11:16;;;;;;;31.33;29.08;;;;;;;;;;6161135;23;20240;-78
2022/02/21 06:13:44;;;;;;;29.50;27.90;;;;;;;;;;6186573;23;20169;-77
2022/02/21 06:16:11;;;;;;;30.08;27.88;;;;;;;;;;6160626;23;20166;-77
2022/02/21 06:18:38;;;;;;;27.92;26.25;;;;;;;;;;6186744;23;20169;-77
2022/02/21 06:21:06;;;;;;;30.67;29.08;;;;;;;;;;6186755;23;20200;-78
2022/02/21 06:23:33;;;;;;;28.58;26.83;;;;;;;;;;6185732;23;20727;-77
2022/02/21 06:26:02;;;;;;;28.48;26.63;;;;;;;;;;6187002;23;20184;-78
2022/02/21 06:28:29;;;;;;;29.98;27.77;;;;;;;;;;6186708;23;20170;-76
2022/02/21 06:30:57;;;;;;;26.27;25.00;;;;;;;;;;6186621;23;20177;-77
2022/02/21 06:33:25;;;;;;;26.35;24.77;;;;;;;;;;6186643;23;20178;-77
2022/02/21 06:35:52;;;;;;;26.25;24.70;;;;;;;;;;6186521;23;20166;-77
2022/02/21 06:38:20;;;;;;;25.83;23.98;;;;;;;;;;6186697;23;20535;-77
2022/02/21 06:40:47;;;;;;;26.88;24.77;;;;;;;;;;6186172;23;20213;-77
2022/02/21 06:43:16;;;;;;;25.08;23.33;;;;;;;;;;6186046;23;20169;-77
2022/02/21 06:45:45;;;;;;;25.17;23.65;;;;;;;;;;6159825;23;20200;-77
2022/02/21 06:48:13;;;;;;;24.95;23.15;;;;;;;;;;6160884;23;20166;-77
2022/02/21 06:50:40;;;;;;;25.83;24.48;;;;;;;;;;6186454;23;20174;-77
2022/02/21 06:53:08;;;;;;;27.65;25.33;;;;;;;;;;6186216;23;20665;-77
2022/02/21 06:55:35;;;;;;;26.23;24.15;;;;;;;;;;6154612;23;20202;-78
2022/02/21 06:58:03;;;;;;;26.30;24.42;;;;;;;;;;6156701;23;20170;-77
2022/02/21 07:00:31;;;;;;;25.20;23.35;;;;;;;;;;6156392;23;20191;-76
2022/02/21 07:02:59;;;;;;;23.48;21.67;;;;;;;;;;6156130;23;20167;-77
2022/02/21 07:05:26;;;;;;;23.17;21.98;;;;;;;;;;6130566;23;20178;-77
2022/02/21 07:07:54;;;;;;;22.13;20.90;;;;;;;;;;6156619;23;20167;-77
2022/02/21 07:10:21;;;;;;;22.95;21.60;;;;;;;;;;6156371;23;20166;-77
2022/02/21 07:12:48;;;;;;;21.65;20.50;;;;;;;;;;6156536;23;20166;-77
2022/02/21 07:15:16;;;;;;;22.40;20.80;;;;;;;;;;6156488;23;20178;-76
2022/02/21 07:17:45;;;;;;;23.23;21.52;;;;;;;;;;6156683;23;20174;-76
2022/02/21 07:20:15;;;;;;;23.70;21.83;;;;;;;;;;6156207;23;20170;-77
2022/02/21 07:22:42;;;;;;;23.05;21.38;;;;;;;;;;6155879;23;20664;-76
2022/02/21 07:25:10;;;;;;;20.83;19.83;;;;;;;;;;6154628;23;20174;-76
2022/02/21 07:27:44;;;;;;;26.27;21.20;;;;;;;;;;6155952;23;20171;-77
2022/02/21 07:30:13;;;;;;;22.35;20.77;;;;;;;;;;6156371;23;20161;-77
2022/02/21 07:32:40;;;;;;;22.25;21.15;;;;;;;;;;6156243;23;20173;-77
2022/02/21 07:35:09;;;;;;;22.38;20.27;;;;;;;;;;6156559;23;20163;-77
2022/02/21 07:37:39;;;;;;;22.98;20.88;;;;;;;;;;6156139;23;20174;-76
2022/02/21 07:40:06;;;;;;;22.48;20.55;;;;;;;;;;6155718;23;20205;-76
2022/02/21 07:42:34;;;;;;;22.23;20.83;;;;;;;;;;6156438;23;20166;-77
2022/02/21 07:45:01;;;;;;;22.63;19.55;;;;;;;;;;6156081;23;20185;-76
2022/02/21 07:47:29;;;;;;;22.20;20.45;;;;;;;;;;6156168;23;20199;-77
2022/02/21 07:49:56;;;;;;;20.75;19.33;;;;;;;;;;6156021;23;20537;-77
2022/02/21 07:52:26;;;;;;;21.98;20.88;;;;;;;;;;6156420;23;20165;-80
2022/02/21 07:54:53;;;;;;;21.33;19.80;;;;;;;;;;6153964;23;20569;-81
2022/02/21 07:57:21;;;;;;;20.08;18.88;;;;;;;;;;6155752;23;20166;-81
2022/02/21 07:59:48;;;;;;;19.30;18.08;;;;;;;;;;6155875;23;20173;-81
2022/02/21 08:02:15;;;;;;;19.05;17.80;;;;;;;;;;6155604;23;20248;-80
2022/02/21 08:04:43;;;;;;;23.38;21.55;;;;;;;;;;6156013;23;20173;-81
2022/02/21 08:09:47;;;;;;;20.98;19.92;;;;;;;;;;6175877;23;20231;-82
2022/02/21 08:14:51;;;;;;;21.48;19.30;;;;;;;;;;6174703;23;20665;-86
2022/02/21 08:17:18;;;;;;;22.05;19.98;;;;;;;;;;6186075;23;20172;-87
2022/02/21 08:19:46;;;;;;;22.13;19.90;;;;;;;;;;6186288;23;20169;-86
2022/02/21 08:22:13;;;;;;;21.45;19.75;;;;;;;;;;6183532;23;20190;-86
2022/02/21 08:24:40;;;;;;;19.83;18.27;;;;;;;;;;6185906;23;20170;-87
2022/02/21 08:27:10;;;;;;;21.75;19.30;;;;;;;;;;6186912;23;20169;-87
2022/02/21 08:29:37;;;;;;;19.27;18.27;;;;;;;;;;6186260;23;20169;-87
2022/02/21 08:32:06;;;;;;;19.73;18.42;;;;;;;;;;6186443;23;20177;-87
2022/02/21 08:34:34;;;;;;;21.20;19.40;;;;;;;;;;6160399;23;20166;-84
2022/02/21 08:37:01;;;;;;;20.98;19.55;;;;;;;;;;6187585;23;20516;-88
2022/02/21 08:39:30;;;;;;;19.33;18.17;;;;;;;;;;6186706;23;20185;-88
2022/02/21 08:41:57;;;;;;;18.75;17.50;;;;;;;;;;6186172;23;20666;-87
2022/02/21 08:44:27;;;;;;;22.65;20.50;;;;;;;;;;6185986;23;20172;-88
2022/02/21 08:46:54;;;;;;;19.40;18.15;;;;;;;;;;6186151;23;20170;-87
2022/02/21 08:49:22;;;;;;;18.73;17.42;;;;;;;;;;6186123;23;20165;-85
2022/02/21 08:51:49;;;;;;;19.65;18.17;;;;;;;;;;6186095;23;20181;-85
2022/02/21 08:54:19;;;;;;;18.77;17.65;;;;;;;;;;6186177;23;20181;-84
2022/02/21 08:56:46;;;;;;;18.55;17.17;;;;;;;;;;6160039;23;20177;-85
2022/02/21 08:59:16;;;;;;;18.08;17.13;;;;;;;;;;6160259;23;20178;-85
2022/02/21 09:01:45;;;;;;;19.33;17.83;;;;;;;;;;6185941;23;20189;-85
2022/02/21 09:04:12;;;;;;;24.48;17.15;;;;;;;;;;6186356;23;20166;-84
2022/02/21 09:06:39;;;;;;;21.17;19.08;;;;;;;;;;6186107;23;20189;-83
2022/02/21 09:09:07;;;;;;;19.73;18.23;;;;;;;;;;6186131;23;20180;-86
2022/02/21 09:11:34;;;;;;;17.40;16.50;;;;;;;;;;6186068;23;20173;-85
2022/02/21 09:14:01;;;;;;;18.83;17.52;;;;;;;;;;6185476;23;20201;-85
2022/02/21 09:16:29;;;;;;;19.90;18.42;;;;;;;;;;6185756;23;20219;-83
2022/02/21 09:18:57;;;;;;;24.50;19.65;;;;;;;;;;6186109;23;20173;-86
2022/02/21 09:21:25;;;;;;;19.52;18.10;;;;;;;;;;6159955;23;20263;-86
2022/02/21 09:23:52;;;;;;;20.30;18.80;;;;;;;;;;6186381;23;20213;-85
2022/02/21 09:26:20;;;;;;;18.58;17.50;;;;;;;;;;6186420;23;20170;-86
2022/02/21 09:28:47;;;;;;;20.00;18.75;;;;;;;;;;6186245;23;20184;-86
2022/02/21 09:31:15;;;;;;;18.23;16.98;;;;;;;;;;6186467;23;20604;-86
2022/02/21 09:33:42;;;;;;;22.27;20.10;;;;;;;;;;6187575;23;20165;-87
2022/02/21 09:36:11;;;;;;;19.70;18.20;;;;;;;;;;6186758;23;20169;-82
2022/02/21 09:38:39;;;;;;;19.42;17.83;;;;;;;;;;6185787;23;20162;-83
2022/02/21 09:41:07;;;;;;;23.08;18.88;;;;;;;;;;6185826;23;20197;-87
2022/02/21 09:43:34;;;;;;;23.08;21.23;;;;;;;;;;6185921;23;20173;-84
2022/02/21 09:46:03;;;;;;;19.58;18.15;;;;;;;;;;6187954;23;20169;-83
2022/02/21 09:48:30;;;;;;;20.77;19.08;;;;;;;;;;6161617;23;20177;-85
2022/02/21 09:51:00;;;;;;;21.17;19.35;;;;;;;;;;6188014;23;20173;-84
2022/02/21 09:53:30;;;;;;;20.17;18.52;;;;;;;;;;6161457;23;20184;-84
2022/02/21 09:55:57;;;;;;;21.58;19.40;;;;;;;;;;6187550;23;20189;-85
2022/02/21 09:58:26;;;;;;;20.42;19.08;;;;;;;;;;6187839;23;20173;-83
2022/02/21 10:00:53;;;;;;;19.00;17.75;;;;;;;;;;6187384;23;20166;-84
2022/02/21 10:03:35;;;;;;;21.85;20.00;;;;;;;;;;6187247;23;20162;-84
2022/02/21 10:06:13;;;;;;;21.05;19.60;;;;;;;;;;6187196;23;20180;-84
2022/02/21 10:08:51;;;;;;;20.20;19.10;;;;;;;;;;6187780;23;20165;-83
2022/02/21 10:11:23;;;;;;;19.35;17.95;;;;;;;;;;6187416;23;20177;-84
2022/02/21 10:13:57;;;;;;;19.70;18.30;;;;;;;;;;6187042;23;20540;-83
2022/02/21 10:16:25;;;;;;;19.95;18.75;;;;;;;;;;6161212;23;20235;-84
2022/02/21 10:19:08;;;;;;;20.45;19.05;;;;;;;;;;6187414;23;20166;-84
2022/02/21 10:21:47;;;;;;;23.38;18.75;;;;;;;;;;6187581;23;20666;-84
2022/02/21 10:24:16;;;;;;;19.25;17.88;;;;;;;;;;6187252;23;20174;-87
2022/02/21 10:26:43;;;;;;;20.33;18.88;;;;;;;;;;6187742;23;20185;-84
2022/02/21 10:29:11;;;;;;;21.38;19.75;;;;;;;;;;6187736;23;20166;-84
2022/02/21 10:31:40;;;;;;;22.08;20.63;;;;;;;;;;6187604;23;20170;-85
2022/02/21 10:34:08;;;;;;;21.42;20.17;;;;;;;;;;6187576;23;20168;-85
2022/02/21 10:36:36;;;;;;;19.52;18.52;;;;;;;;;;6186985;23;20174;-85
2022/02/21 10:39:05;;;;;;;22.30;20.08;;;;;;;;;;6187382;23;20600;-85
2022/02/21 10:41:52;;;;;;;18.75;17.65;;;;;;;;;;6187308;23;20473;-84
2022/02/21 10:44:24;;;;;;;20.42;19.10;;;;;;;;;;6187215;23;20166;-85
2022/02/21 10:47:01;;;;;;;20.00;18.40;;;;;;;;;;6187554;23;20168;-85
2022/02/21 10:49:29;;;;;;;19.15;17.58;;;;;;;;;;6187664;23;20169;-85
2022/02/21 10:51:57;;;;;;;18.67;17.55;;;;;;;;;;6187420;23;20162;-86
2022/02/21 10:54:32;;;;;;;18.50;17.08;;;;;;;;;;6187621;23;20220;-86
2022/02/21 10:57:01;;;;;;;21.60;20.38;;;;;;;;;;6186403;23;20205;-86
2022/02/21 10:59:29;;;;;;;20.17;17.83;;;;;;;;;;6187404;23;20548;-86
2022/02/21 11:01:57;;;;;;;19.60;18.05;;;;;;;;;;6187279;23;20208;-86
2022/02/21 11:04:25;;;;;;;22.60;18.00;;;;;;;;;;6187341;23;20169;-86
2022/02/21 11:06:53;;;;;;;17.95;16.65;;;;;;;;;;6186917;23;20173;-86
2022/02/21 11:09:21;;;;;;;21.65;20.35;;;;;;;;;;6186753;23;20192;-87
2022/02/21 11:11:49;;;;;;;25.15;23.25;;;;;;;;;;6187329;23;20181;-86
2022/02/21 11:14:20;;;;;;;24.42;22.92;;;;;;;;;;6186459;23;20209;-86
2022/02/21 11:16:48;;;;;;;23.80;21.88;;;;;;;;;;6186932;23;20281;-86
2022/02/21 11:19:16;;;;;;;24.35;22.67;;;;;;;;;;6186916;23;20628;-86
2022/02/21 11:21:44;;;;;;;26.02;24.15;;;;;;;;;;6186560;23;20216;-87
2022/02/21 11:24:12;;;;;;;21.02;19.92;;;;;;;;;;6187840;23;20240;-85
2022/02/21 11:26:40;;;;;;;22.67;21.35;;;;;;;;;;6187567;23;20173;-89
2022/02/21 11:29:12;;;;;;;26.08;24.50;;;;;;;;;;6187440;23;20173;-89
2022/02/21 11:31:42;;;;;;;22.17;20.83;;;;;;;;;;6186982;23;20170;-88
2022/02/21 11:34:10;;;;;;;22.92;21.65;;;;;;;;;;6187038;23;20551;-85
2022/02/21 11:36:38;;;;;;;22.98;21.27;;;;;;;;;;6186700;23;20180;-85
2022/02/21 11:39:22;;;;;;;23.63;21.40;;;;;;;;;;6186636;23;20165;-85
2022/02/21 11:42:03;;;;;;;23.30;21.30;;;;;;;;;;6185841;23;20288;-85
2022/02/21 11:44:30;;;;;;;21.42;20.33;;;;;;;;;;6186598;23;20176;-86
2022/02/21 11:47:10;;;;;;;23.92;22.50;;;;;;;;;;6187464;23;20240;-85
2022/02/21 11:49:38;;;;;;;23.33;22.02;;;;;;;;;;6186153;23;20224;-86
2022/02/21 11:52:26;;;;;;;25.45;23.63;;;;;;;;;;6186324;23;20166;-85
2022/02/21 11:54:53;;;;;;;24.65;23.35;;;;;;;;;;6175325;23;20174;-86
2022/02/21 11:57:21;;;;;;;25.13;23.33;;;;;;;;;;6187213;23;20166;-84
2022/02/21 11:59:48;;;;;;;24.35;23.02;;;;;;;;;;6186531;23;20174;-86
2022/02/21 12:02:17;;;;;;;21.73;20.73;;;;;;;;;;6186557;23;20511;-86
2022/02/21 12:04:49;;;;;;;23.80;21.92;;;;;;;;;;6186829;23;20453;-86
2022/02/21 12:07:23;;;;;;;23.00;21.90;;;;;;;;;;6187668;23;20173;-86
2022/02/21 12:10:09;;;;;;;25.05;23.63;;;;;;;;;;6187166;23;20198;-86
2022/02/21 12:12:50;;;;;;;23.98;22.15;;;;;;;;;;6160742;23;20195;-86
2022/02/21 12:15:17;;;;;;;24.02;22.67;;;;;;;;;;6185929;23;20205;-86
2022/02/21 12:17:46;;;;;;;26.20;24.50;;;;;;;;;;6186728;23;20170;-87
2022/02/21 12:20:31;;;;;;;27.92;25.45;;;;;;;;;;6186401;23;20184;-87
2022/02/21 12:23:09;;;;;;;24.75;23.55;;;;;;;;;;6186230;23;20196;-86
2022/02/21 12:25:39;;;;;;;24.38;23.25;;;;;;;;;;6186394;23;20172;-85
2022/02/21 12:28:17;;;;;;;27.63;26.20;;;;;;;;;;6186320;23;20249;-86
2022/02/21 12:30:46;;;;;;;26.35;25.00;;;;;;;;;;6186945;23;20169;-87
2022/02/21 12:33:18;;;;;;;25.48;24.27;;;;;;;;;;6160491;23;20550;-87
2022/02/21 12:35:46;;;;;;;26.77;25.33;;;;;;;;;;6160295;23;20232;-87
2022/02/21 12:38:14;;;;;;;29.25;27.98;;;;;;;;;;6186614;23;20694;-87
2022/02/21 12:40:51;;;;;;;32.08;30.58;;;;;;;;;;6186260;23;20173;-87
2022/02/21 12:43:19;;;;;;;28.20;26.10;;;;;;;;;;6185846;23;20189;-87
2022/02/21 12:45:46;;;;;;;32.30;29.67;;;;;;;;;;6186656;23;20173;-87
2022/02/21 12:48:15;;;;;;;25.80;24.35;;;;;;;;;;6186351;23;20165;-87
2022/02/21 12:50:43;;;;;;;25.50;23.95;;;;;;;;;;6186656;23;20611;-87
2022/02/21 12:53:10;;;;;;;25.05;23.85;;;;;;;;;;6186198;23;20177;-86
2022/02/21 12:55:47;;;;;;;24.73;23.08;;;;;;;;;;6186461;23;20488;-88
2022/02/21 12:58:15;;;;;;;23.58;22.27;;;;;;;;;;6186635;23;20211;-87
2022/02/21 13:00:43;;;;;;;22.83;21.42;;;;;;;;;;6160802;23;20168;-88
2022/02/21 13:03:23;;;;;;;24.02;22.27;;;;;;;;;;6186204;23;20189;-87
2022/02/21 13:06:00;;;;;;;24.48;23.13;;;;;;;;;;6186552;23;20166;-87
2022/02/21 13:08:37;;;;;;;24.73;23.55;;;;;;;;;;6186052;23;20197;-87
2022/02/21 13:11:04;;;;;;;24.40;23.20;;;;;;;;;;6186118;23;20200;-87
2022/02/21 13:13:32;;;;;;;29.95;28.65;;;;;;;;;;6186123;23;20174;-87
2022/02/21 13:16:05;;;;;;;33.17;31.70;;;;;;;;;;6186262;23;20209;-87
2022/02/21 13:18:48;;;;;;;26.80;25.55;;;;;;;;;;6186357;23;20166;-88
2022/02/21 13:21:27;;;;;;;33.38;31.70;;;;;;;;;;6188210;23;20499;-88
2022/02/21 13:23:55;;;;;;;40.67;38.75;;;;;;;;;;6187890;23;20193;-89
2022/02/21 13:26:22;;;;;;;40.97;39.17;;;;;;;;;;6188150;23;20481;-89
2022/02/21 13:28:50;;;;;;;43.67;41.45;;;;;;;;;;6188311;23;20185;-88
2022/02/21 13:31:17;;;;;;;38.20;36.60;;;;;;;;;;6188304;23;20208;-88
2022/02/21 13:33:47;;;;;;;39.35;37.47;;;;;;;;;;6188058;23;20204;-88
2022/02/21 13:36:14;;;;;;;42.08;40.17;;;;;;;;;;6188143;23;20180;-88
2022/02/21 13:38:54;;;;;;;40.10;38.40;;;;;;;;;;6188806;23;20162;-87
2022/02/21 13:41:22;;;;;;;40.60;38.70;;;;;;;;;;6188053;23;20169;-87
2022/02/21 13:43:49;;;;;;;43.67;41.30;;;;;;;;;;6188246;23;20215;-88
2022/02/21 13:46:16;;;;;;;42.30;40.05;;;;;;;;;;6188327;23;20162;-87
2022/02/21 13:48:44;;;;;;;41.20;39.20;;;;;;;;;;6187442;23;20173;-88
2022/02/21 13:51:17;;;;;;;39.67;37.88;;;;;;;;;;6188597;23;20166;-87
2022/02/21 13:53:45;;;;;;;39.25;37.30;;;;;;;;;;6188579;23;20168;-90
2022/02/21 13:56:15;;;;;;;39.75;37.70;;;;;;;;;;6187938;23;20243;-90
2022/02/21 13:58:44;;;;;;;40.85;39.03;;;;;;;;;;6187870;23;20181;-88
2022/02/21 14:01:12;;;;;;;38.08;36.25;;;;;;;;;;6188977;23;20165;-88
2022/02/21 14:03:40;;;;;;;36.83;35.03;;;;;;;;;;6189227;23;20220;-88
2022/02/21 14:06:08;;;;;;;37.15;35.50;;;;;;;;;;6190111;23;20174;-88
2022/02/21 14:08:40;;;;;;;38.30;36.60;;;;;;;;;;6188025;23;20188;-89
2022/02/21 14:11:07;;;;;;;41.80;39.67;;;;;;;;;;6187977;23;20496;-88
2022/02/21 14:13:37;;;;;;;45.58;43.33;;;;;;;;;;6187792;23;20477;-90
2022/02/21 14:16:05;;;;;;;44.65;42.45;;;;;;;;;;6156881;23;20209;-89
2022/02/21 14:18:33;;;;;;;46.97;44.42;;;;;;;;;;6158523;23;20170;-89
2022/02/21 14:21:01;;;;;;;44.65;42.15;;;;;;;;;;6158769;23;20516;-89
2022/02/21 14:23:28;;;;;;;45.30;43.20;;;;;;;;;;6157987;23;20706;-89
2022/02/21 14:25:56;;;;;;;46.05;43.85;;;;;;;;;;6157138;23;20182;-89
2022/02/21 14:28:23;;;;;;;46.45;44.30;;;;;;;;;;6158580;23;20489;-88
2022/02/21 14:30:52;;;;;;;49.53;46.92;;;;;;;;;;6158088;23;20185;-89